Latest Weather Observations for Forbes

IDN60801

Issued at 11:02 am EDT Tuesday 31 March 2015 (issued every 30 minutes, with the page automatically refreshed every 10 minutes)

About weather observations | Map of weather stations | Latest weather observations for NSW | Other Formats
Station Details ID: 065103 Name: FORBES AIRPORT AWS Lat: -33.36 Lon: 147.92 Height: 230.4 m
Data from the previous 72 hours. | See also: Recent months at Forbes
Date/Time
EDT
Temp
°C
App
Temp
°C
Dew
Point
Rel
Hum
%
Delta-T
°C
Wind Press
QNH
hPa
Press
MSL
hPa
Rain
since 9 am
mm
Dir
 
Spd
km/h
Gust
km/h
Spd
kts
Gust
kts
31/11:00am 24.0 21.9 11.3 45 7.2 ENE 13 24 7 13 1025.1 1024.2 0.0
31/10:30am 23.2 20.4 11.3 47 6.7 E 17 26 9 14 1025.3 1024.4 0.0
31/10:00am 21.9 19.7 10.7 49 6.2 SE 13 19 7 10 1025.3 1024.4 0.0
31/09:30am 20.0 17.2 10.1 53 5.4 SE 15 19 8 10 1025.2 1024.3 0.0
31/09:00am 17.6 15.0 9.5 59 4.3 SSE 13 17 7 9 1025.0 1024.1 0.0
31/08:30am 16.1 13.8 9.1 63 3.6 S 11 15 6 8 1024.6 1023.7 0.0
31/08:00am 14.1 12.2 8.9 71 2.7 SSW 9 11 5 6 1024.2 1023.3 0.0
31/07:30am 13.0 10.9 8.3 73 2.4 SSW 9 11 5 6 1023.8 1022.9 0.0
31/07:00am 13.4 11.8 8.7 73 2.4 S 7 9 4 5 1023.4 1022.5 0.0
31/06:30am 13.0 10.9 8.1 72 2.5 S 9 11 5 6 1023.2 1022.3 0.0
31/06:00am 13.5 13.1 8.1 70 2.7 CALM 0 0 0 0 1023.1 1022.2 0.0
31/05:30am 13.6 11.5 8.4 71 2.6 E 9 11 5 6 1022.9 1022.0 0.0
31/05:00am 12.9 10.3 6.3 64 3.2 E 9 11 5 6 1023.0 1022.1 0.0
31/04:30am 13.7 13.0 7.0 64 3.3 CALM 0 0 0 0 1023.0 1022.1 0.0
31/04:00am 13.0 11.6 3.7 53 4.2 CALM 0 0 0 0 1023.2 1022.3 0.0
31/03:30am 14.5 12.5 6.3 58 4.0 E 6 9 3 5 1023.3 1022.4 0.0
31/03:00am 16.2 13.0 6.9 54 4.6 ESE 13 19 7 10 1023.5 1022.6 0.0
31/02:30am 15.9 12.7 6.9 55 4.5 SE 13 17 7 9 1023.6 1022.7 0.0
31/02:00am 14.6 12.0 4.0 49 4.9 SE 7 9 4 5 1024.0 1023.1 0.0
31/01:30am 16.0 13.3 5.6 50 5.0 E 9 11 5 6 1024.0 1023.1 0.0
31/01:00am 15.6 13.1 4.9 49 5.1 E 7 11 4 6 1024.0 1023.1 0.0
31/12:30am 15.2 12.9 4.9 50 4.9 SSE 6 7 3 4 1024.1 1023.2 0.0
31/12:00am 14.6 11.9 3.7 48 5.0 S 7 9 4 5 1024.0 1023.1 0.0
 
Date/Time
EDT
Temp
°C
App
Temp
°C
Dew
Point
Rel
Hum
%
Delta-T
°C
Wind Press
QNH
hPa
Press
MSL
hPa
Rain
since 9 am
mm
Dir
 
Spd
km/h
Gust
km/h
Spd
kts
Gust
kts
30/11:30pm 14.5 13.1 3.3 47 5.1 CALM 0 0 0 0 1024.1 1023.2 0.0
30/11:00pm 14.6 11.7 1.5 41 5.7 SSE 6 7 3 4 1024.0 1023.1 0.0
30/10:30pm 17.9 14.9 4.1 40 6.6 SE 9 11 5 6 1023.8 1022.9 0.0
30/10:00pm 19.2 16.3 4.6 38 7.1 ESE 9 15 5 8 1023.8 1022.9 0.0
30/09:30pm 19.5 16.5 4.0 36 7.5 ESE 9 9 5 5 1023.6 1022.7 0.0
30/09:00pm 19.9 16.7 3.2 33 7.9 ESE 9 11 5 6 1023.5 1022.6 0.0
30/08:30pm 20.8 17.5 2.6 30 8.6 ESE 9 11 5 6 1023.3 1022.4 0.0
30/08:00pm 21.1 17.9 2.9 30 8.7 SE 9 11 5 6 1023.0 1022.1 0.0
30/07:30pm 22.4 18.4 3.0 28 9.3 ESE 13 20 7 11 1022.6 1021.7 0.0
30/07:00pm 23.9 18.9 3.8 27 9.9 ESE 19 24 10 13 1022.3 1021.5 0.0
30/06:30pm 25.0 20.4 3.6 25 10.6 ENE 17 24 9 13 1022.0 1021.2 0.0
30/06:00pm 26.0 22.1 3.3 23 11.3 S 13 20 7 11 1021.6 1020.8 0.0
30/05:30pm 25.8 21.6 3.7 24 11.1 SSE 15 22 8 12 1021.5 1020.6 0.0
30/05:00pm 26.2 21.3 4.1 24 11.1 S 19 30 10 16 1021.3 1020.4 0.0
30/04:30pm 25.2 21.8 3.8 25 10.7 SE 11 19 6 10 1021.4 1020.5 0.0
30/04:00pm 24.8 21.7 3.5 25 10.5 ENE 9 15 5 8 1021.3 1020.4 0.0
30/03:30pm 24.7 22.0 3.9 26 10.4 W 7 11 4 6 1021.5 1020.6 0.0
30/03:00pm 25.0 21.9 3.6 25 10.6 WSW 9 15 5 8 1021.6 1020.8 0.0
30/02:30pm 25.5 22.1 4.0 25 10.8 SSE 11 20 6 11 1021.7 1020.9 0.0
30/02:00pm 27.4 23.3 4.5 23 11.7 E 15 28 8 15 1021.9 1021.1 0.0
30/01:30pm 25.9 20.9 3.8 24 11.1 E 19 24 10 13 1022.5 1021.6 0.0
30/01:00pm 25.6 20.5 4.1 25 10.8 E 20 32 11 17 1022.8 1021.9 0.0
30/12:30pm 24.7 19.7 4.5 27 10.2 E 20 26 11 14 1023.2 1022.3 0.0
30/12:00pm 25.2 20.3 4.9 27 10.3 ESE 20 28 11 15 1023.5 1022.6 0.0
30/11:30am 23.9 19.1 5.8 31 9.3 SE 20 26 11 14 1024.1 1023.2 0.0
30/11:00am 22.9 18.5 6.6 35 8.4 ESE 19 26 10 14 1024.3 1023.4 0.0
30/10:30am 21.3 16.0 6.8 39 7.5 SE 24 33 13 18 1024.5 1023.6 0.0
30/10:00am 20.4 17.3 7.1 42 6.8 ESE 13 19 7 10 1024.9 1024.0 0.0
30/09:30am 19.4 14.9 6.8 44 6.4 SSE 20 26 11 14 1024.8 1023.9 0.0
30/09:00am 18.8 13.5 6.9 46 6.0 SSE 24 30 13 16 1024.6 1023.7 0.0
30/08:30am 18.3 12.8 7.4 49 5.6 S 26 33 14 18 1024.4 1023.5 0.0
30/08:00am 17.5 12.2 7.0 50 5.3 S 24 32 13 17 1024.1 1023.2 0.0
30/07:30am 17.3 11.7 5.3 45 5.8 SSW 24 32 13 17 1024.1 1023.2 0.0
30/07:00am 16.7 14.4 5.9 49 5.3 WSW 7 11 4 6 1023.7 1022.8 0.0
30/06:30am 17.6 14.6 3.9 40 6.5 S 9 11 5 6 1023.0 1022.1 0.0
30/06:00am 17.7 13.9 3.9 40 6.5 S 13 15 7 8 1022.7 1021.8 0.0
30/05:30am 17.9 14.1 3.8 39 6.7 S 13 17 7 9 1022.5 1021.6 0.0
30/05:00am 17.6 14.2 3.9 40 6.5 SSW 11 13 6 7 1022.5 1021.6 0.0
30/04:30am 17.5 14.5 4.1 41 6.4 S 9 9 5 5 1022.2 1021.4 0.0
30/04:00am 17.1 14.7 4.4 43 6.0 SE 6 7 3 4 1022.3 1021.5 0.0
30/03:30am 16.9 14.3 4.3 43 6.0 WSW 7 7 4 4 1022.6 1021.7 0.0
30/03:00am 17.3 14.6 3.6 40 6.4 S 7 9 4 5 1022.7 1021.8 0.0
30/02:30am 17.2 14.6 3.1 39 6.6 N 6 9 3 5 1022.9 1022.0 0.0
30/02:00am 18.0 15.2 2.3 35 7.2 NE 6 11 3 6 1023.0 1022.1 0.0
30/01:30am 19.0 15.1 3.2 35 7.5 SSE 13 15 7 8 1022.5 1021.6 0.0
30/01:00am 17.8 15.0 3.3 38 6.8 SSE 7 11 4 6 1022.8 1021.9 0.0
30/12:30am 18.0 15.2 3.1 37 7.0 SSW 7 9 4 5 1023.0 1022.1 0.0
30/12:00am 18.4 15.6 2.3 34 7.4 ESE 6 7 3 4 1023.0 1022.1 0.0
 
Date/Time
EDT
Temp
°C
App
Temp
°C
Dew
Point
Rel
Hum
%
Delta-T
°C
Wind Press
QNH
hPa
Press
MSL
hPa
Rain
since 9 am
mm
Dir
 
Spd
km/h
Gust
km/h
Spd
kts
Gust
kts
29/11:30pm 19.9 15.9 2.7 32 8.1 SE 13 15 7 8 1022.9 1022.0 0.0
29/11:00pm 20.2 16.5 2.5 31 8.3 SE 11 15 6 8 1022.9 1022.0 0.0
29/10:30pm 20.6 17.0 2.9 31 8.4 SE 11 19 6 10 1023.1 1022.2 0.0
29/10:00pm 20.8 17.5 2.6 30 8.6 SSE 9 13 5 7 1023.2 1022.3 0.0
29/09:30pm 20.6 17.4 2.9 31 8.4 SSE 9 11 5 6 1023.2 1022.3 0.0
29/09:00pm 20.5 16.9 2.8 31 8.4 S 11 11 6 6 1023.0 1022.1 0.0
29/08:30pm 20.5 17.3 2.8 31 8.4 S 9 11 5 6 1022.3 1021.5 0.0
29/08:00pm 20.2 17.2 2.1 30 8.4 SSW 7 9 4 5 1022.0 1021.2 0.0
29/07:30pm 21.2 18.1 1.5 27 9.2 SSW 7 9 4 5 1021.7 1020.9 0.0
29/07:00pm 22.6 19.5 1.6 25 9.9 SSW 7 9 4 5 1021.5 1020.6 0.0
29/06:30pm 24.2 20.8 1.8 23 10.7 SW 9 11 5 6 1021.3 1020.4 0.0
29/06:00pm 24.9 21.1 1.7 22 11.1 SW 11 15 6 8 1021.3 1020.4 0.0
29/05:30pm 25.3 21.4 1.4 21 11.4 SW 11 15 6 8 1021.0 1020.1 0.0
29/05:00pm 25.5 21.7 1.6 21 11.5 WSW 11 17 6 9 1021.1 1020.2 0.0
29/04:30pm 25.8 21.9 1.2 20 11.8 SW 11 17 6 9 1021.1 1020.2 0.0
29/04:00pm 27.0 22.9 2.1 20 12.2 SW 13 22 7 12 1021.1 1020.2 0.0
29/03:30pm 26.2 22.7 1.5 20 11.9 WSW 9 19 5 10 1021.5 1020.6 0.0
29/03:00pm 25.8 22.0 1.8 21 11.6 SW 11 22 6 12 1021.8 1021.0 0.0
29/02:30pm 24.2 20.3 1.2 22 10.9 SSW 11 19 6 10 1022.3 1021.5 0.0
29/02:00pm 25.0 21.2 1.8 22 11.1 WSW 11 20 6 11 1022.5 1021.6 0.0
29/01:30pm 24.4 19.4 1.3 22 11.0 SSW 17 26 9 14 1023.0 1022.1 0.0
29/01:00pm 23.7 19.8 1.4 23 10.5 SSW 11 24 6 13 1023.2 1022.3 0.0
29/12:30pm 23.3 20.0 0.4 22 10.6 SSE 7 13 4 7 1023.5 1022.6 0.0
29/12:00pm 21.6 18.6 0.8 25 9.5 SSW 6 9 3 5 1023.8 1022.9 0.0
29/11:30am 21.8 19.7 2.0 27 9.3 SW 2 9 1 5 1024.1 1023.2 0.0
29/11:00am 20.5 18.4 1.4 28 8.8 S 2 7 1 4 1024.1 1023.2 0.0
29/10:30am 17.8 14.9 1.3 33 7.4 ENE 6 9 3 5 1024.0 1023.1 0.0
29/10:00am 16.6 14.2 1.9 37 6.6 E 4 7 2 4 1024.0 1023.1 0.0
29/09:30am 14.8 11.8 1.7 41 5.8 E 7 9 4 5 1023.9 1023.0 0.0
29/09:00am 13.6 10.7 2.5 47 4.9 N 7 7 4 4 1023.6 1022.7 0.0
29/08:30am 12.0 10.6 3.8 57 3.7 CALM 0 0 0 0 1023.2 1022.3 0.0
29/08:00am 11.3 10.0 4.1 61 3.2 CALM 0 6 0 3 1023.0 1022.1 0.0
29/07:30am 10.3 7.5 3.1 61 3.2 E 7 9 4 5 1022.5 1021.6 0.0
29/07:00am 10.6 7.4 3.2 60 3.2 SSW 9 9 5 5 1022.3 1021.5 0.0
29/06:30am 9.7 7.9 1.1 55 3.6 CALM 0 0 0 0 1022.0 1021.2 0.0
29/06:00am 10.4 8.5 3.0 60 3.2 SW 2 6 1 3 1021.6 1020.8 0.0
29/05:30am 11.2 9.7 2.8 56 3.7 CALM 0 0 0 0 1021.2 1020.3 0.0
29/05:00am 12.0 9.8 3.5 56 3.8 E 4 6 2 3 1021.1 1020.2 0.0
29/04:30am 11.7 9.5 3.2 56 3.8 ENE 4 7 2 4 1021.1 1020.2 0.0
29/04:00am 12.2 9.4 2.9 53 4.1 E 7 9 4 5 1021.1 1020.2 0.0
29/03:30am 12.8 10.0 2.9 51 4.4 SSE 7 11 4 6 1021.3 1020.4 0.0
29/03:00am 12.8 11.3 2.9 51 4.4 CALM 0 0 0 0 1021.6 1020.8 0.0
29/02:30am 12.4 10.8 2.6 51 4.3 CALM 0 0 0 0 1021.7 1020.9 0.0
29/02:00am 11.9 10.3 2.6 53 4.1 CALM 0 0 0 0 1021.8 1021.0 0.0
29/01:30am 11.7 9.8 2.7 54 4.0 ENE 2 7 1 4 1021.9 1021.1 0.0
29/01:00am 11.4 8.3 1.6 51 4.2 NE 7 9 4 5 1021.9 1021.1 0.0
29/12:30am 11.8 9.8 2.3 52 4.2 E 2 6 1 3 1021.6 1020.8 0.0
29/12:00am 12.8 11.2 2.4 49 4.6 CALM 0 6 0 3 1022.0 1021.2 0.0
 
Date/Time
EDT
Temp
°C
App
Temp
°C
Dew
Point
Rel
Hum
%
Delta-T
°C
Wind Press
QNH
hPa
Press
MSL
hPa
Rain
since 9 am
mm
Dir
 
Spd
km/h
Gust
km/h
Spd
kts
Gust
kts
28/11:30pm 12.4 9.5 1.4 47 4.7 SE 6 7 3 4 1021.9 1021.1 0.0
28/11:00pm 12.8 9.9 1.5 46 4.9 E 6 7 3 4 1021.9 1021.1 0.0
28/10:30pm 13.3 11.5 1.0 43 5.3 CALM 0 0 0 0 1022.1 1021.3 0.0
28/10:00pm 14.9 11.4 1.4 40 5.9 S 9 9 5 5 1022.0 1021.2 0.0
28/09:30pm 16.3 13.3 2.0 38 6.5 SSW 7 7 4 4 1022.2 1021.4 0.0
28/09:00pm 15.7 12.2 1.1 37 6.4 SSW 9 11 5 6 1022.0 1021.2 0.0
28/08:30pm 16.6 13.5 1.1 35 6.9 S 7 9 4 5 1021.8 1021.0 0.0
28/08:00pm 17.4 14.3 1.4 34 7.2 WSW 7 7 4 4 1021.5 1020.6 0.0
28/07:30pm 19.6 16.4 0.6 28 8.6 S 7 9 4 5 1021.1 1020.2 0.0
28/07:00pm 21.6 18.5 1.3 26 9.4 SSW 7 9 4 5 1020.9 1020.0 0.0
28/06:30pm 23.4 20.4 1.7 24 10.3 WSW 7 11 4 6 1020.9 1020.0 0.0
28/06:00pm 24.9 21.9 1.7 22 11.1 SW 7 13 4 7 1020.6 1019.7 0.0
28/05:30pm 23.6 20.0 0.7 22 10.7 S 9 13 5 7 1020.7 1019.8 0.0
28/05:00pm 24.3 19.6 1.2 22 10.9 SSW 15 24 8 13 1020.8 1019.9 0.0
28/04:30pm 24.3 19.9 0.6 21 11.1 SSW 13 20 7 11 1020.9 1020.0 0.0
28/04:00pm 24.6 20.8 1.5 22 11.0 S 11 17 6 9 1021.1 1020.2 0.0
28/03:30pm 23.1 18.2 -0.4 21 10.7 SW 15 22 8 12 1021.5 1020.6 0.0
28/03:00pm 22.8 17.8 1.2 24 10.1 S 17 24 9 13 1021.7 1020.9 0.0
28/02:30pm 22.8 18.5 1.2 24 10.1 SSW 13 22 7 12 1021.9 1021.1 0.0
28/02:00pm 22.6 18.0 1.6 25 9.9 WSW 15 26 8 14 1022.5 1021.6 0.0
28/01:30pm 21.5 17.7 1.7 27 9.3 SW 11 26 6 14 1022.9 1022.0 0.0
28/01:00pm 20.9 16.8 2.2 29 8.8 S 13 22 7 12 1023.3 1022.4 0.0
28/12:30pm 20.8 17.6 3.1 31 8.5 S 9 20 5 11 1023.8 1022.9 0.0
28/12:00pm 20.2 16.3 3.4 33 8.0 SSE 13 20 7 11 1024.3 1023.4 0.0
28/11:30am 19.3 16.2 3.5 35 7.5 SSW 9 28 5 15 1024.5 1023.6 0.0

Other Formats:

Comma delimited format used in spreadsheet applications
http://www.bom.gov.au/fwo/IDN60801/IDN60801.94715.axf

JavaScript Object Notation format (JSON) in row-major order
http://www.bom.gov.au/fwo/IDN60801/IDN60801.94715.json